ADDS METAR Data INFO
IDs: Format: Raw Decoded Include TAF

Data at: 0735 UTC 18 Oct 2017

KSBY 180654Z AUTO 00000KT 10SM CLR 03/02 A3034 RMK AO2 SLP275 T00330022
KSBY 180554Z AUTO 00000KT 10SM CLR 03/03 A3034 RMK AO2 SLP275 T00330028 10083 20028 58003
KSBY 180454Z AUTO 00000KT 10SM CLR 04/03 A3034 RMK AO2 SLP277 T00390028 401610039
KSBY 180354Z AUTO 00000KT 10SM CLR 04/04 A3035 RMK AO2 SLP278 T00440039
KSBY 180254Z AUTO 00000KT 10SM CLR 06/05 A3035 RMK AO2 SLP278 T00560050 53008
KSBY 180154Z 00000KT 10SM CLR 06/05 A3034 RMK AO2 SLP276 T00610050
KSBY 180054Z 00000KT 10SM CLR 07/06 A3033 RMK AO2 SLP272 T00670061
KSBY 172354Z 00000KT 10SM CLR 08/07 A3033 RMK AO2 SLP271 T00830067 10161 20083 53008
KSBY 172254Z 12003KT 10SM CLR 09/07 A3031 RMK AO2 SLP265 T00940072
KSBY 172154Z 05003KT 10SM CLR 14/05 A3030 RMK AO2 SLP262 T01390050
KSBY 172054Z 36005KT 10SM CLR 16/03 A3030 RMK AO2 SLP263 T01560028 56005
KSBY 171954Z 34004KT 10SM CLR 16/03 A3031 RMK AO2 SLP264 T01560028
KSBY 171854Z 34005KT 10SM CLR 15/02 A3030 RMK AO2 SLP262 T01500022
KSBY 171754Z 02005KT 10SM CLR 15/03 A3032 RMK AO2 SLP268 T01500033 10150 20061 58012
KSBY 171654Z 01006KT 10SM CLR 14/03 A3033 RMK AO2 SLP273 T01390028
KSBY 171554Z 36008KT 10SM CLR 13/04 A3035 RMK AO2 SLP278 T01330039
KSBY 171454Z 01008KT 10SM CLR 12/04 A3035 RMK AO2 SLP280 T01220044 51011
KSBY 171354Z 36009KT 10SM CLR 10/03 A3035 RMK AO2 SLP279 T01000033
KSBY 171254Z 36007KT 10SM CLR 08/03 A3034 RMK AO2 SLP277 T00830028
KSBY 171154Z 35007KT 10SM CLR 06/02 A3032 RMK AO2 SLP269 70010 T00610022 10078 20056 53018
KSBY 171054Z 35007KT 10SM CLR 06/02 A3030 RMK AO2 SLP263 T00560017
KSBY 170954Z 36008KT 10SM CLR 07/02 A3028 RMK AO2 SLP257 T00670022
KSBY 170854Z AUTO 35007KT 10SM CLR 06/04 A3027 RMK AO2 SLP251 T00610044 53014
KSBY 170754Z AUTO 01005KT 10SM CLR 07/04 A3024 RMK AO2 SLP243 T00670044
KSBY 170654Z AUTO 01006KT 10SM CLR 07/05 A3024 RMK AO2 SLP242 T00720050
KSBY 170554Z AUTO 36006KT 10SM CLR 08/06 A3023 RMK AO2 SLP237 T00780056 10117 20078 53008
KSBY 170454Z AUTO 36004KT 10SM CLR 08/06 A3022 RMK AO2 SLP234 T00830056 402220083
KSBY 170354Z AUTO 34005KT 10SM CLR 09/06 A3021 RMK AO2 SLP232 T00890061
KSBY 170254Z AUTO 33004KT 10SM CLR 09/07 A3020 RMK AO2 SLP229 T00940067 51020
KSBY 170154Z 34004KT 10SM CLR 09/07 A3019 RMK AO2 SLP224 T00940072
KSBY 170054Z 35003KT 10SM CLR 11/07 A3017 RMK AO2 SLP217 T01060072
KSBY 162354Z 35003KT 10SM CLR 11/08 A3014 RMK AO2 SLP209 60000 T01110078 10161 20111 53020
KSBY 162254Z 35005KT 10SM CLR 12/07 A3012 RMK AO2 SLP201 T01220072
KSBY 162154Z 35010KT 10SM CLR 14/07 A3010 RMK AO2 SLP193 T01440072
KSBY 162054Z 33015KT 10SM CLR 15/08 A3009 RMK AO2 SLP190 60000 T01500078 53014
KSBY 161954Z 34010G19KT 10SM FEW043 15/09 A3006 RMK AO2 SLP182 T01500094